Time;durP1;ratioP1;P1;durP2;ratioP2;P2;SDS_P1;SDS_P2;PMS_P1;PMS_P2;Temp;Humidity;BMP_temperature;BMP_pressure;BME280_temperature;BME280_humidity;BME280_pressure;Samples;Min_cycle;Max_cycle;Signal;HPM_P1;HPM_P2
2023/01/15 00:00:09;;;;;;;5.47;1.27;;;;;;;;;;4992593;28;20065;-39
2023/01/15 00:02:35;;;;;;;1.80;1.15;;;;;;;;;;4992488;28;20058;-39
2023/01/15 00:05:02;;;;;;;1.23;1.02;;;;;;;;;;4992499;28;20031;-39
2023/01/15 00:07:28;;;;;;;0.70;0.70;;;;;;;;;;4992688;28;20026;-39
2023/01/15 00:09:53;;;;;;;2.90;0.95;;;;;;;;;;4992420;28;20061;-39
2023/01/15 00:12:19;;;;;;;1.55;1.40;;;;;;;;;;4992250;28;20469;-40
2023/01/15 00:14:45;;;;;;;1.50;0.88;;;;;;;;;;4990912;28;20049;-39
2023/01/15 00:17:10;;;;;;;1.83;0.95;;;;;;;;;;4992306;28;20057;-39
2023/01/15 00:19:36;;;;;;;0.77;0.77;;;;;;;;;;4992235;28;20042;-40
2023/01/15 00:22:01;;;;;;;1.33;1.15;;;;;;;;;;4992343;28;20037;-40
2023/01/15 00:29:55;;;;;;;2.63;1.00;;;;;;;;;;4992101;28;20026;-39
2023/01/15 00:32:20;;;;;;;2.08;1.27;;;;;;;;;;4990792;28;20018;-40
2023/01/15 00:34:46;;;;;;;1.65;1.17;;;;;;;;;;4992065;28;20045;-39
2023/01/15 00:37:11;;;;;;;1.63;1.15;;;;;;;;;;4991922;28;20014;-39
2023/01/15 00:39:36;;;;;;;2.92;1.35;;;;;;;;;;4992022;28;20085;-40
2023/01/15 00:42:02;;;;;;;1.77;1.20;;;;;;;;;;4990750;28;20027;-39
2023/01/15 00:44:28;;;;;;;3.35;1.42;;;;;;;;;;4990530;28;20085;-39
2023/01/15 00:46:53;;;;;;;2.67;1.40;;;;;;;;;;4994761;28;20030;-39
2023/01/15 00:49:19;;;;;;;4.82;1.52;;;;;;;;;;4995973;28;20026;-39
2023/01/15 00:51:45;;;;;;;1.15;0.90;;;;;;;;;;4996312;28;20500;-39
2023/01/15 00:54:10;;;;;;;3.22;1.58;;;;;;;;;;4996218;28;20370;-39
2023/01/15 00:56:36;;;;;;;1.00;0.90;;;;;;;;;;4995865;28;20018;-40
2023/01/15 00:59:03;;;;;;;1.80;1.02;;;;;;;;;;4994460;28;20035;-39
2023/01/15 01:01:29;;;;;;;1.50;1.20;;;;;;;;;;4994567;28;20019;-39
2023/01/15 01:03:55;;;;;;;1.15;0.75;;;;;;;;;;4995786;28;20034;-39
2023/01/15 01:06:21;;;;;;;1.67;1.02;;;;;;;;;;4994353;28;20025;-39
2023/01/15 01:08:47;;;;;;;1.17;0.75;;;;;;;;;;4996056;28;20469;-39
2023/01/15 01:11:14;;;;;;;1.35;1.23;;;;;;;;;;4995544;28;20022;-39
2023/01/15 01:13:40;;;;;;;1.67;1.05;;;;;;;;;;4994304;28;20046;-40
2023/01/15 01:16:29;;;;;;;2.40;0.80;;;;;;;;;;4995581;28;20057;-40
2023/01/15 01:18:55;;;;;;;2.72;0.98;;;;;;;;;;4994161;28;20066;-39
2023/01/15 01:21:21;;;;;;;2.63;0.77;;;;;;;;;;4995381;28;20033;-39
2023/01/15 01:23:46;;;;;;;2.22;1.10;;;;;;;;;;4995458;28;20065;-39
2023/01/15 01:26:12;;;;;;;1.20;0.88;;;;;;;;;;4993982;28;20030;-39
2023/01/15 01:28:38;;;;;;;1.05;0.93;;;;;;;;;;4995367;28;20481;-39
2023/01/15 01:31:06;;;;;;;3.10;1.27;;;;;;;;;;4995504;28;20022;-39
2023/01/15 01:33:31;;;;;;;0.82;0.82;;;;;;;;;;4995145;28;20030;-39
2023/01/15 01:35:57;;;;;;;1.00;0.88;;;;;;;;;;4995225;28;20036;-39
2023/01/15 01:38:22;;;;;;;4.82;1.02;;;;;;;;;;4993813;28;20034;-39
2023/01/15 01:40:47;;;;;;;0.88;0.75;;;;;;;;;;4995076;28;20026;-39
2023/01/15 01:43:18;;;;;;;2.25;1.15;;;;;;;;;;4993717;28;20038;-44
2023/01/15 01:45:43;;;;;;;0.73;0.73;;;;;;;;;;4993642;28;20054;-39
2023/01/15 01:48:09;;;;;;;2.53;1.38;;;;;;;;;;4994846;28;20038;-39
2023/01/15 01:50:37;;;;;;;2.33;1.40;;;;;;;;;;4994998;28;20018;-39
2023/01/15 01:53:04;;;;;;;1.17;1.00;;;;;;;;;;4993651;28;20030;-39
2023/01/15 01:55:30;;;;;;;2.10;1.25;;;;;;;;;;4993439;28;20038;-39
2023/01/15 01:57:58;;;;;;;2.10;1.10;;;;;;;;;;4993427;28;20022;-39
2023/01/15 02:00:23;;;;;;;2.35;1.17;;;;;;;;;;4994724;28;20026;-39
2023/01/15 02:02:51;;;;;;;1.27;0.98;;;;;;;;;;4994700;28;20038;-39
2023/01/15 02:05:43;;;;;;;1.75;1.27;;;;;;;;;;4994624;28;20031;-41
2023/01/15 02:08:10;;;;;;;2.13;1.48;;;;;;;;;;4989981;28;20412;-39
2023/01/15 02:10:35;;;;;;;1.42;1.17;;;;;;;;;;4994567;28;20106;-40
2023/01/15 02:13:07;;;;;;;1.17;1.00;;;;;;;;;;4993329;28;20037;-39
2023/01/15 02:15:37;;;;;;;1.38;1.27;;;;;;;;;;4994339;28;20034;-39
2023/01/15 02:18:26;;;;;;;4.32;1.27;;;;;;;;;;4994340;28;20093;-39
2023/01/15 02:21:06;;;;;;;1.80;1.17;;;;;;;;;;4993102;28;20027;-39
2023/01/15 02:23:31;;;;;;;1.38;1.27;;;;;;;;;;4994317;28;20108;-40
2023/01/15 02:26:32;;;;;;;1.85;1.40;;;;;;;;;;4993043;28;20106;-39
2023/01/15 02:28:59;;;;;;;4.43;1.20;;;;;;;;;;4933963;29;20050;-39
2023/01/15 02:31:39;;;;;;;0.98;0.88;;;;;;;;;;4977177;28;20385;-39
2023/01/15 02:34:10;;;;;;;0.77;0.77;;;;;;;;;;4992713;28;20042;-40
2023/01/15 02:36:39;;;;;;;1.02;1.00;;;;;;;;;;4992815;28;20027;-39
2023/01/15 02:39:07;;;;;;;1.58;1.42;;;;;;;;;;4992689;28;20034;-39
2023/01/15 02:41:35;;;;;;;4.03;1.17;;;;;;;;;;4992761;28;20034;-39
2023/01/15 02:44:03;;;;;;;1.45;1.10;;;;;;;;;;4992472;28;20026;-39
2023/01/15 02:46:31;;;;;;;1.45;1.20;;;;;;;;;;4992662;28;20121;-39
2023/01/15 02:48:57;;;;;;;1.17;1.08;;;;;;;;;;4992582;28;20030;-39
2023/01/15 02:51:30;;;;;;;2.67;1.20;;;;;;;;;;4992353;28;20033;-39
2023/01/15 02:53:57;;;;;;;2.10;1.30;;;;;;;;;;4992409;28;20523;-39
2023/01/15 02:56:24;;;;;;;0.80;0.80;;;;;;;;;;4992338;28;20025;-39
2023/01/15 02:58:53;;;;;;;1.55;1.10;;;;;;;;;;4992354;28;20085;-39
2023/01/15 03:01:22;;;;;;;2.47;1.42;;;;;;;;;;4992302;28;20033;-39
2023/01/15 03:04:06;;;;;;;2.45;1.10;;;;;;;;;;4992335;28;20126;-39
2023/01/15 03:06:32;;;;;;;1.98;1.55;;;;;;;;;;4992180;28;20073;-39
2023/01/15 03:08:58;;;;;;;1.20;0.93;;;;;;;;;;4991669;28;20026;-39
2023/01/15 03:11:24;;;;;;;3.30;1.30;;;;;;;;;;4993397;28;20041;-39
2023/01/15 03:14:03;;;;;;;1.85;1.20;;;;;;;;;;4991950;28;20034;-39
2023/01/15 03:16:34;;;;;;;1.48;0.70;;;;;;;;;;4993329;28;20038;-39
2023/01/15 03:19:19;;;;;;;2.15;1.90;;;;;;;;;;4991952;28;20042;-39
2023/01/15 03:22:05;;;;;;;0.75;0.65;;;;;;;;;;4992018;28;20560;-39
2023/01/15 03:24:33;;;;;;;0.93;0.80;;;;;;;;;;4992148;28;20134;-39
2023/01/15 03:26:59;;;;;;;1.13;0.73;;;;;;;;;;4993139;28;20018;-39
2023/01/15 03:29:26;;;;;;;2.50;1.35;;;;;;;;;;4991728;28;20109;-40
2023/01/15 03:31:52;;;;;;;2.90;0.98;;;;;;;;;;4991770;28;20025;-40
2023/01/15 03:34:18;;;;;;;0.75;0.70;;;;;;;;;;4991594;28;20042;-39
2023/01/15 03:36:45;;;;;;;0.93;0.93;;;;;;;;;;4992967;28;20491;-40
2023/01/15 03:39:11;;;;;;;3.80;1.05;;;;;;;;;;4992878;28;20031;-39
2023/01/15 03:42:05;;;;;;;0.60;0.60;;;;;;;;;;4992875;28;20064;-39
2023/01/15 03:44:51;;;;;;;0.65;0.65;;;;;;;;;;4991382;28;20045;-40
2023/01/15 03:47:35;;;;;;;0.90;0.85;;;;;;;;;;4977732;28;20035;-40
2023/01/15 03:50:04;;;;;;;0.60;0.60;;;;;;;;;;4992769;28;20037;-39
2023/01/15 03:52:55;;;;;;;0.45;0.45;;;;;;;;;;4989904;28;20027;-39
2023/01/15 03:55:42;;;;;;;0.32;0.32;;;;;;;;;;4991201;28;20034;-39
2023/01/15 03:58:16;;;;;;;0.90;0.90;;;;;;;;;;4991015;28;20027;-39
2023/01/15 04:00:48;;;;;;;1.20;0.60;;;;;;;;;;4991349;28;20041;-41
2023/01/15 04:03:15;;;;;;;1.92;1.00;;;;;;;;;;4991150;28;20026;-39
2023/01/15 04:05:41;;;;;;;1.73;0.75;;;;;;;;;;4991256;28;20472;-40
2023/01/15 04:08:07;;;;;;;1.15;1.05;;;;;;;;;;4991073;28;20030;-39
2023/01/15 04:10:34;;;;;;;1.50;0.98;;;;;;;;;;4991091;28;20085;-40
2023/01/15 04:13:02;;;;;;;1.17;1.05;;;;;;;;;;4991176;28;20057;-40
2023/01/15 04:15:28;;;;;;;0.70;0.55;;;;;;;;;;4992271;28;20469;-39
2023/01/15 04:17:53;;;;;;;1.35;1.05;;;;;;;;;;4990728;28;20038;-39
2023/01/15 04:20:20;;;;;;;1.13;0.98;;;;;;;;;;4989304;28;20422;-39
2023/01/15 04:22:47;;;;;;;1.30;1.00;;;;;;;;;;4990259;28;20076;-40
2023/01/15 04:25:13;;;;;;;1.23;1.02;;;;;;;;;;4991551;28;20101;-39
2023/01/15 04:27:38;;;;;;;5.85;1.17;;;;;;;;;;4990216;28;20042;-46
2023/01/15 04:30:04;;;;;;;2.25;1.27;;;;;;;;;;4991711;28;20030;-39
2023/01/15 04:32:29;;;;;;;1.00;0.93;;;;;;;;;;4991716;28;20431;-39
2023/01/15 04:34:54;;;;;;;1.27;0.70;;;;;;;;;;4991361;28;20533;-39
2023/01/15 04:37:20;;;;;;;1.52;0.98;;;;;;;;;;4991329;28;20034;-39
2023/01/15 04:39:46;;;;;;;2.50;1.05;;;;;;;;;;4991350;28;20026;-39
2023/01/15 04:45:13;;;;;;;0.75;0.75;;;;;;;;;;4969286;28;20086;-39
2023/01/15 04:47:38;;;;;;;1.60;0.95;;;;;;;;;;4986629;28;20457;-39
2023/01/15 04:50:04;;;;;;;2.90;0.98;;;;;;;;;;4991608;28;20397;-39
2023/01/15 04:52:29;;;;;;;1.33;1.23;;;;;;;;;;4991421;28;20041;-39
2023/01/15 04:54:54;;;;;;;1.85;1.00;;;;;;;;;;4991251;28;20042;-39
2023/01/15 04:57:20;;;;;;;2.60;1.42;;;;;;;;;;4991253;28;20570;-39
2023/01/15 04:59:45;;;;;;;3.05;1.38;;;;;;;;;;4991162;28;20030;-39
2023/01/15 05:02:11;;;;;;;2.65;0.88;;;;;;;;;;4991325;28;20487;-39
2023/01/15 05:04:36;;;;;;;1.15;0.90;;;;;;;;;;4991499;28;20030;-39
2023/01/15 05:07:02;;;;;;;2.63;1.48;;;;;;;;;;4991431;28;20022;-39
2023/01/15 05:09:28;;;;;;;1.73;1.20;;;;;;;;;;4991220;28;20440;-39
2023/01/15 05:11:53;;;;;;;1.95;1.02;;;;;;;;;;4991058;28;20019;-39
2023/01/15 05:14:18;;;;;;;1.83;1.23;;;;;;;;;;4991098;28;20038;-39
2023/01/15 05:16:44;;;;;;;1.88;1.52;;;;;;;;;;4991121;28;20093;-39
2023/01/15 05:19:10;;;;;;;2.15;1.17;;;;;;;;;;4990966;28;20034;-39
2023/01/15 05:21:38;;;;;;;3.20;1.55;;;;;;;;;;4991301;28;20026;-39
2023/01/15 05:24:05;;;;;;;11.65;1.63;;;;;;;;;;4991315;28;20046;-40
2023/01/15 05:26:32;;;;;;;0.98;0.77;;;;;;;;;;4990976;28;20036;-39
2023/01/15 05:28:58;;;;;;;1.10;1.00;;;;;;;;;;4991086;28;20110;-39
2023/01/15 05:31:24;;;;;;;2.08;1.00;;;;;;;;;;4991333;28;20022;-39
2023/01/15 05:33:50;;;;;;;0.80;0.80;;;;;;;;;;4994563;28;20034;-40
2023/01/15 05:36:17;;;;;;;1.50;1.10;;;;;;;;;;4994540;28;20065;-39
2023/01/15 05:38:42;;;;;;;0.75;0.70;;;;;;;;;;4994678;28;20023;-39
2023/01/15 05:43:54;;;;;;;1.45;1.05;;;;;;;;;;4994809;28;20487;-39
2023/01/15 05:46:19;;;;;;;2.85;1.50;;;;;;;;;;4994228;28;20058;-40
2023/01/15 05:48:45;;;;;;;2.53;2.05;;;;;;;;;;4994464;28;20142;-39
2023/01/15 05:51:10;;;;;;;2.22;1.08;;;;;;;;;;4994262;28;20030;-39
2023/01/15 05:53:36;;;;;;;0.70;0.68;;;;;;;;;;4994230;28;20063;-39
2023/01/15 05:56:01;;;;;;;0.90;0.85;;;;;;;;;;4994476;28;20173;-39
2023/01/15 05:58:27;;;;;;;0.75;0.75;;;;;;;;;;4994080;28;20113;-39
2023/01/15 06:00:53;;;;;;;1.73;1.13;;;;;;;;;;4994141;28;20022;-39
2023/01/15 06:03:20;;;;;;;2.13;1.30;;;;;;;;;;4994165;28;20026;-39
2023/01/15 06:05:49;;;;;;;1.75;1.40;;;;;;;;;;4994071;28;20029;-39
2023/01/15 06:08:14;;;;;;;2.75;0.95;;;;;;;;;;4994041;28;20072;-39
2023/01/15 06:10:43;;;;;;;0.75;0.60;;;;;;;;;;4993985;28;20481;-39
2023/01/15 06:13:08;;;;;;;2.38;1.13;;;;;;;;;;4994196;28;20365;-39
2023/01/15 06:15:33;;;;;;;0.85;0.75;;;;;;;;;;4993772;28;20033;-39
2023/01/15 06:17:59;;;;;;;1.50;1.17;;;;;;;;;;4993933;28;20564;-39
2023/01/15 06:20:24;;;;;;;0.75;0.75;;;;;;;;;;4993627;28;20026;-39
2023/01/15 06:22:49;;;;;;;0.95;0.80;;;;;;;;;;4993755;28;20042;-40
2023/01/15 06:25:15;;;;;;;1.60;1.13;;;;;;;;;;4993664;28;20065;-39
2023/01/15 06:27:43;;;;;;;3.20;1.65;;;;;;;;;;4993790;28;20112;-40
2023/01/15 06:30:09;;;;;;;4.50;1.75;;;;;;;;;;4993474;28;20022;-39
2023/01/15 06:32:35;;;;;;;0.82;0.82;;;;;;;;;;4993303;28;20119;-39
2023/01/15 06:35:00;;;;;;;2.25;1.23;;;;;;;;;;4993447;28;20166;-39
2023/01/15 06:37:26;;;;;;;1.63;1.20;;;;;;;;;;4993470;28;20627;-39
2023/01/15 06:39:51;;;;;;;1.85;0.95;;;;;;;;;;4993339;28;20030;-39
2023/01/15 06:47:45;;;;;;;1.73;1.23;;;;;;;;;;4993153;28;20038;-39
2023/01/15 06:50:11;;;;;;;3.22;1.02;;;;;;;;;;4993150;28;20461;-40
2023/01/15 06:52:36;;;;;;;1.70;0.85;;;;;;;;;;4993242;28;20053;-39
2023/01/15 06:55:02;;;;;;;4.65;1.45;;;;;;;;;;4993362;28;20034;-39
2023/01/15 06:57:27;;;;;;;1.80;1.38;;;;;;;;;;4993239;28;20375;-39
2023/01/15 06:59:53;;;;;;;2.65;1.40;;;;;;;;;;4993220;28;20030;-39
2023/01/15 07:02:18;;;;;;;1.35;1.25;;;;;;;;;;4992852;28;20022;-40
2023/01/15 07:04:44;;;;;;;9.65;3.83;;;;;;;;;;4992950;28;20080;-38
2023/01/15 07:07:09;;;;;;;4.22;1.83;;;;;;;;;;4993100;28;20645;-39
2023/01/15 07:09:35;;;;;;;2.28;1.08;;;;;;;;;;4991537;28;20022;-42
2023/01/15 07:12:01;;;;;;;2.78;1.52;;;;;;;;;;4992868;28;20033;-39
2023/01/15 07:14:27;;;;;;;1.55;1.20;;;;;;;;;;4991517;28;20036;-38
2023/01/15 07:16:52;;;;;;;4.03;1.50;;;;;;;;;;4992967;28;20030;-39
2023/01/15 07:19:18;;;;;;;1.67;0.82;;;;;;;;;;4992626;28;20022;-39
2023/01/15 07:21:43;;;;;;;1.70;1.00;;;;;;;;;;4992691;28;20041;-40
2023/01/15 07:24:09;;;;;;;5.45;1.73;;;;;;;;;;4992445;28;20019;-39
2023/01/15 07:26:35;;;;;;;2.17;1.50;;;;;;;;;;4992474;28;20035;-39
2023/01/15 07:29:01;;;;;;;2.22;1.40;;;;;;;;;;4992671;28;20027;-38
2023/01/15 07:31:27;;;;;;;3.08;1.80;;;;;;;;;;4992426;28;20041;-40
2023/01/15 07:33:54;;;;;;;3.50;1.73;;;;;;;;;;4992669;28;20496;-39
2023/01/15 07:36:19;;;;;;;6.05;2.30;;;;;;;;;;4992194;28;20068;-39
2023/01/15 07:38:45;;;;;;;5.22;2.15;;;;;;;;;;4992211;28;20634;-39
2023/01/15 07:52:06;;;;;;;3.72;2.15;;;;;;;;;;4992097;28;20026;-39
2023/01/15 07:54:31;;;;;;;1.63;1.17;;;;;;;;;;4991740;28;20033;-40
2023/01/15 07:56:57;;;;;;;3.30;2.00;;;;;;;;;;4991927;28;20073;-39
2023/01/15 07:59:24;;;;;;;8.50;3.60;;;;;;;;;;4992077;28;20058;-39
2023/01/15 08:01:50;;;;;;;6.05;3.22;;;;;;;;;;4991894;28;20058;-39
2023/01/15 08:04:15;;;;;;;4.00;2.42;;;;;;;;;;4991710;28;20468;-39
2023/01/15 08:06:41;;;;;;;2.38;1.60;;;;;;;;;;4991802;28;20093;-39
2023/01/15 08:09:06;;;;;;;3.50;1.98;;;;;;;;;;4992160;28;20109;-40
2023/01/15 08:17:00;;;;;;;2.00;1.67;;;;;;;;;;4992073;28;20050;-39
2023/01/15 08:19:28;;;;;;;4.30;2.42;;;;;;;;;;4991690;28;20370;-39
2023/01/15 08:21:57;;;;;;;3.83;2.38;;;;;;;;;;4990373;28;20034;-39
2023/01/15 08:24:22;;;;;;;3.58;2.28;;;;;;;;;;4991470;28;20022;-39
2023/01/15 08:26:48;;;;;;;4.00;1.92;;;;;;;;;;4991482;28;20026;-40
2023/01/15 08:29:14;;;;;;;3.03;1.35;;;;;;;;;;4991757;28;20472;-40
2023/01/15 08:31:40;;;;;;;4.32;1.88;;;;;;;;;;4991623;28;20036;-40
2023/01/15 08:34:06;;;;;;;4.15;2.33;;;;;;;;;;4991363;28;20112;-39
2023/01/15 08:36:32;;;;;;;3.10;2.05;;;;;;;;;;4991354;28;20038;-39
2023/01/15 08:38:59;;;;;;;7.43;2.45;;;;;;;;;;4991363;28;20018;-39
2023/01/15 08:41:25;;;;;;;4.70;1.80;;;;;;;;;;4991287;28;20033;-39
2023/01/15 08:43:50;;;;;;;5.88;2.78;;;;;;;;;;4991742;28;20512;-39
2023/01/15 08:46:15;;;;;;;1.10;0.98;;;;;;;;;;4991181;28;20128;-39
2023/01/15 08:48:41;;;;;;;2.70;1.63;;;;;;;;;;4991212;28;20480;-39
2023/01/15 08:51:08;;;;;;;1.60;1.27;;;;;;;;;;4991328;28;20527;-40
2023/01/15 08:53:34;;;;;;;2.90;1.40;;;;;;;;;;4991094;28;20396;-39
2023/01/15 08:55:59;;;;;;;3.60;1.65;;;;;;;;;;4991338;28;20042;-40
2023/01/15 08:58:28;;;;;;;2.50;0.93;;;;;;;;;;4991137;28;20022;-39
2023/01/15 09:00:54;;;;;;;1.88;1.50;;;;;;;;;;4991404;28;20062;-39
2023/01/15 09:03:20;;;;;;;2.15;1.55;;;;;;;;;;4991161;28;20034;-39
2023/01/15 09:05:45;;;;;;;3.08;1.80;;;;;;;;;;4991182;28;20393;-39
2023/01/15 09:08:11;;;;;;;3.63;1.23;;;;;;;;;;4994293;28;20084;-39
2023/01/15 09:10:36;;;;;;;1.95;1.67;;;;;;;;;;4995455;28;20665;-39
2023/01/15 09:13:02;;;;;;;5.15;2.80;;;;;;;;;;4995019;28;20018;-39
2023/01/15 09:15:29;;;;;;;4.55;3.35;;;;;;;;;;4994732;28;20038;-41
2023/01/15 09:17:54;;;;;;;3.88;2.30;;;;;;;;;;4994835;28;20034;-39
2023/01/15 09:20:20;;;;;;;6.15;2.90;;;;;;;;;;4994830;28;20038;-39
2023/01/15 09:22:47;;;;;;;4.07;2.55;;;;;;;;;;4995151;28;20022;-40
2023/01/15 09:25:15;;;;;;;3.35;1.92;;;;;;;;;;4994737;28;20026;-39
2023/01/15 09:27:40;;;;;;;5.13;2.47;;;;;;;;;;4994681;28;20045;-39
2023/01/15 09:30:06;;;;;;;7.97;4.05;;;;;;;;;;4994876;28;20030;-39
2023/01/15 09:32:32;;;;;;;6.80;3.72;;;;;;;;;;4994499;28;20384;-39
2023/01/15 09:34:58;;;;;;;5.20;2.67;;;;;;;;;;4993303;28;20057;-40
2023/01/15 09:37:23;;;;;;;8.05;2.60;;;;;;;;;;4994451;28;20030;-40
2023/01/15 09:39:48;;;;;;;4.28;2.15;;;;;;;;;;4994731;28;20030;-40
2023/01/15 09:42:17;;;;;;;4.47;3.17;;;;;;;;;;4994380;28;20023;-40
2023/01/15 09:44:45;;;;;;;7.00;2.60;;;;;;;;;;4994348;28;20053;-39
2023/01/15 09:47:26;;;;;;;3.00;2.17;;;;;;;;;;4994331;28;20038;-39
2023/01/15 09:50:08;;;;;;;7.20;2.10;;;;;;;;;;4994437;28;20109;-39
2023/01/15 09:52:34;;;;;;;;;;;;;;;;;;4993346;28;20031;-40
2023/01/15 09:55:12;;;;;;;5.43;1.83;;;;;;;;;;4994251;28;19926;-39
2023/01/15 09:57:39;;;;;;;2.67;2.17;;;;;;;;;;4994119;28;20028;-40
2023/01/15 10:00:05;;;;;;;4.68;1.85;;;;;;;;;;4994200;28;20030;-39
2023/01/15 10:02:46;;;;;;;3.65;2.28;;;;;;;;;;4994128;28;20073;-39
2023/01/15 10:05:30;;;;;;;6.45;2.35;;;;;;;;;;4994006;28;20038;-40
2023/01/15 10:08:14;;;;;;;5.78;2.75;;;;;;;;;;4992647;28;20030;-39
2023/01/15 10:10:43;;;;;;;5.75;3.03;;;;;;;;;;4993911;28;20109;-39
2023/01/15 10:13:18;;;;;;;4.00;1.98;;;;;;;;;;4993831;28;20049;-39
2023/01/15 10:15:45;;;;;;;3.90;2.58;;;;;;;;;;4993791;28;20097;-40
2023/01/15 10:18:15;;;;;;;2.75;2.10;;;;;;;;;;4992660;28;20054;-39
2023/01/15 10:21:07;;;;;;;5.93;4.13;;;;;;;;;;4993629;28;20121;-39
2023/01/15 10:23:37;;;;;;;7.47;2.38;;;;;;;;;;4993910;28;20034;-39
2023/01/15 10:26:17;;;;;;;2.13;1.92;;;;;;;;;;4993712;28;20041;-39
2023/01/15 10:28:49;;;;;;;2.65;2.03;;;;;;;;;;4993626;28;20022;-39
2023/01/15 10:31:23;;;;;;;6.90;2.47;;;;;;;;;;4993719;28;20022;-39
2023/01/15 10:33:58;;;;;;;3.78;2.58;;;;;;;;;;4993709;28;20030;-39
2023/01/15 10:36:30;;;;;;;4.85;3.00;;;;;;;;;;4993365;28;20563;-38
2023/01/15 10:39:15;;;;;;;5.15;2.90;;;;;;;;;;4993797;28;20058;-39
2023/01/15 10:41:50;;;;;;;10.57;2.58;;;;;;;;;;4993489;28;20456;-39
2023/01/15 10:44:28;;;;;;;5.78;2.78;;;;;;;;;;4993104;28;20026;-39
2023/01/15 10:46:59;;;;;;;5.30;2.08;;;;;;;;;;4993383;28;20038;-39
2023/01/15 10:49:27;;;;;;;3.38;2.78;;;;;;;;;;4993191;28;20035;-39
2023/01/15 10:51:59;;;;;;;11.70;2.78;;;;;;;;;;4993317;28;20031;-39
2023/01/15 10:54:28;;;;;;;4.55;1.55;;;;;;;;;;4991814;28;20050;-40
2023/01/15 10:57:00;;;;;;;3.45;1.83;;;;;;;;;;4993146;28;20507;-38
2023/01/15 10:59:26;;;;;;;8.32;2.50;;;;;;;;;;4993162;28;20132;-39
2023/01/15 11:01:52;;;;;;;4.70;2.40;;;;;;;;;;4992989;28;20532;-39
2023/01/15 11:04:18;;;;;;;16.77;6.63;;;;;;;;;;4992887;28;20024;-39
2023/01/15 11:06:44;;;;;;;35.65;13.02;;;;;;;;;;4992826;28;20018;-39
2023/01/15 11:09:17;;;;;;;9.93;5.82;;;;;;;;;;4993128;28;20034;-39
2023/01/15 11:20:03;;;;;;;8.40;3.60;;;;;;;;;;4993081;28;20038;-39
2023/01/15 11:22:28;;;;;;;3.20;2.67;;;;;;;;;;4992600;28;20026;-40
2023/01/15 11:24:56;;;;;;;3.63;2.38;;;;;;;;;;4991229;28;20081;-39
2023/01/15 11:27:45;;;;;;;6.65;2.53;;;;;;;;;;4992483;28;20049;-39
2023/01/15 11:30:27;;;;;;;12.45;6.72;;;;;;;;;;4991864;28;20038;-39
2023/01/15 11:32:54;;;;;;;8.25;4.38;;;;;;;;;;4992541;28;20125;-39
2023/01/15 11:35:19;;;;;;;7.30;3.42;;;;;;;;;;4992238;28;20030;-39
2023/01/15 11:37:45;;;;;;;5.90;2.88;;;;;;;;;;4992186;28;20362;-39
2023/01/15 11:40:17;;;;;;;3.60;2.30;;;;;;;;;;4992189;28;20027;-39
2023/01/15 11:51:06;;;;;;;4.53;2.95;;;;;;;;;;4992289;28;20042;-39
2023/01/15 11:53:33;;;;;;;5.13;3.15;;;;;;;;;;4991978;28;20106;-39
2023/01/15 11:56:05;;;;;;;5.32;2.97;;;;;;;;;;4991998;28;20038;-40
2023/01/15 11:58:32;;;;;;;2.07;1.60;;;;;;;;;;4992199;28;20057;-39
2023/01/15 12:00:58;;;;;;;5.10;2.28;;;;;;;;;;4992054;28;20029;-39
2023/01/15 12:03:26;;;;;;;2.80;2.42;;;;;;;;;;4992399;28;20034;-39
2023/01/15 12:06:06;;;;;;;6.75;3.47;;;;;;;;;;4991854;28;20022;-39
2023/01/15 12:08:52;;;;;;;6.82;3.35;;;;;;;;;;4991743;28;20132;-39
2023/01/15 12:11:36;;;;;;;7.13;3.85;;;;;;;;;;4989859;28;20045;-39
2023/01/15 12:14:22;;;;;;;5.10;3.13;;;;;;;;;;4991822;28;20026;-39
2023/01/15 12:16:53;;;;;;;5.60;2.83;;;;;;;;;;4961343;28;20403;-39
2023/01/15 12:19:50;;;;;;;12.18;4.75;;;;;;;;;;4990404;28;20042;-39
2023/01/15 12:22:34;;;;;;;3.95;2.53;;;;;;;;;;4958542;28;20497;-39
2023/01/15 12:25:05;;;;;;;2.90;2.25;;;;;;;;;;4991622;28;20034;-39
2023/01/15 12:27:30;;;;;;;8.50;3.63;;;;;;;;;;4991336;28;20030;-39
2023/01/15 12:30:13;;;;;;;5.38;3.20;;;;;;;;;;4991634;28;20365;-39
2023/01/15 12:32:41;;;;;;;4.93;2.75;;;;;;;;;;4990160;28;20030;-39
2023/01/15 12:35:14;;;;;;;4.90;3.53;;;;;;;;;;4991390;28;20035;-39
2023/01/15 12:37:43;;;;;;;3.33;2.55;;;;;;;;;;4991298;28;20453;-39
2023/01/15 12:40:29;;;;;;;5.72;2.55;;;;;;;;;;4991443;28;20031;-39
2023/01/15 12:45:42;;;;;;;5.65;2.90;;;;;;;;;;4991344;28;20050;-39
2023/01/15 12:48:13;;;;;;;4.60;3.45;;;;;;;;;;4991299;28;20018;-39
2023/01/15 12:50:47;;;;;;;3.45;2.10;;;;;;;;;;4991275;28;20084;-39
2023/01/15 12:53:19;;;;;;;6.20;3.00;;;;;;;;;;4991661;28;20100;-39
2023/01/15 12:56:00;;;;;;;4.13;3.20;;;;;;;;;;4991381;28;20487;-39
2023/01/15 12:58:41;;;;;;;3.78;2.42;;;;;;;;;;4991050;28;20061;-39
2023/01/15 13:01:10;;;;;;;8.27;2.72;;;;;;;;;;4991236;28;20137;-39
2023/01/15 13:03:58;;;;;;;3.25;2.40;;;;;;;;;;4991019;28;20044;-39
2023/01/15 13:06:27;;;;;;;2.83;2.40;;;;;;;;;;4991083;28;20610;-39
2023/01/15 13:09:04;;;;;;;3.88;2.55;;;;;;;;;;4991188;28;20023;-39
2023/01/15 13:11:29;;;;;;;4.88;3.00;;;;;;;;;;4991045;28;20029;-39
2023/01/15 13:13:58;;;;;;;6.15;2.47;;;;;;;;;;4991252;28;20018;-39
2023/01/15 13:16:31;;;;;;;5.20;2.95;;;;;;;;;;4991262;28;20042;-39
2023/01/15 13:19:05;;;;;;;6.90;3.67;;;;;;;;;;4991257;28;20370;-39
2023/01/15 13:21:33;;;;;;;2.17;1.90;;;;;;;;;;4991047;28;20034;-39
2023/01/15 13:24:04;;;;;;;2.83;2.55;;;;;;;;;;4991242;28;20019;-39
2023/01/15 13:26:32;;;;;;;3.33;2.40;;;;;;;;;;4991161;28;20416;-39
2023/01/15 13:28:58;;;;;;;2.35;2.13;;;;;;;;;;4990967;28;20065;-39
2023/01/15 13:31:42;;;;;;;5.00;2.42;;;;;;;;;;4990930;28;20058;-39
2023/01/15 13:34:40;;;;;;;3.65;2.53;;;;;;;;;;4990930;28;20030;-39
2023/01/15 13:37:19;;;;;;;2.53;2.22;;;;;;;;;;4958037;28;20038;-39
2023/01/15 13:39:47;;;;;;;4.72;2.17;;;;;;;;;;4989635;28;20038;-40
2023/01/15 13:42:33;;;;;;;3.05;2.40;;;;;;;;;;4990976;28;20029;-39
2023/01/15 13:45:01;;;;;;;3.33;2.45;;;;;;;;;;4990747;28;20571;-39
2023/01/15 13:47:29;;;;;;;1.85;1.60;;;;;;;;;;4990625;28;20034;-39
2023/01/15 13:49:58;;;;;;;4.40;2.85;;;;;;;;;;4990795;28;20034;-39
2023/01/15 13:52:27;;;;;;;2.63;1.92;;;;;;;;;;4990929;28;20015;-39
2023/01/15 13:54:56;;;;;;;3.10;1.65;;;;;;;;;;4994460;28;20125;-39
2023/01/15 13:57:33;;;;;;;4.30;2.13;;;;;;;;;;4994245;28;20022;-39
2023/01/15 13:59:58;;;;;;;6.55;2.20;;;;;;;;;;4994264;28;20038;-39
2023/01/15 14:02:26;;;;;;;3.72;2.83;;;;;;;;;;4994395;28;20393;-39
2023/01/15 14:04:52;;;;;;;2.53;1.92;;;;;;;;;;4992855;28;20524;-39
2023/01/15 14:07:19;;;;;;;4.82;2.13;;;;;;;;;;4993996;28;20046;-39
2023/01/15 14:09:45;;;;;;;5.07;2.58;;;;;;;;;;4993903;28;20085;-39
2023/01/15 14:12:16;;;;;;;4.15;2.42;;;;;;;;;;4993993;28;20038;-39
2023/01/15 14:15:11;;;;;;;12.15;2.88;;;;;;;;;;4994045;28;20038;-39
2023/01/15 14:17:39;;;;;;;4.53;2.75;;;;;;;;;;4940647;28;20036;-39
2023/01/15 14:20:21;;;;;;;4.13;2.47;;;;;;;;;;4992671;28;20010;-39
2023/01/15 14:22:56;;;;;;;6.70;2.90;;;;;;;;;;4993820;28;20042;-39
2023/01/15 14:25:24;;;;;;;4.40;2.85;;;;;;;;;;4993707;28;20038;-39
2023/01/15 14:27:50;;;;;;;4.53;2.72;;;;;;;;;;4993806;28;20469;-39
2023/01/15 14:30:15;;;;;;;6.45;3.05;;;;;;;;;;4993526;28;20030;-39
2023/01/15 14:32:44;;;;;;;3.15;2.80;;;;;;;;;;4993354;28;20025;-39
2023/01/15 14:35:17;;;;;;;8.38;5.00;;;;;;;;;;4993276;28;20500;-39
2023/01/15 14:37:50;;;;;;;23.05;10.55;;;;;;;;;;4993415;28;20037;-40
2023/01/15 14:40:25;;;;;;;11.55;5.88;;;;;;;;;;4993280;28;20033;-39
2023/01/15 14:43:09;;;;;;;5.43;3.78;;;;;;;;;;4993351;28;20034;-39
2023/01/15 14:45:43;;;;;;;3.28;2.97;;;;;;;;;;4992929;28;20046;-39
2023/01/15 14:48:20;;;;;;;3.85;2.83;;;;;;;;;;4993286;28;20038;-39
2023/01/15 14:50:48;;;;;;;3.45;2.38;;;;;;;;;;4993211;28;20080;-39
2023/01/15 14:53:23;;;;;;;8.27;3.45;;;;;;;;;;4993224;28;20535;-39
2023/01/15 14:55:51;;;;;;;14.60;4.15;;;;;;;;;;4993029;28;20122;-40
2023/01/15 14:58:59;;;;;;;9.90;5.65;;;;;;;;;;4992958;28;20133;-39
2023/01/15 15:01:34;;;;;;;10.48;4.80;;;;;;;;;;4932659;29;20036;-39
2023/01/15 15:04:05;;;;;;;7.38;3.90;;;;;;;;;;4932219;29;20035;-39
2023/01/15 15:06:34;;;;;;;7.00;3.58;;;;;;;;;;4975118;28;20038;-39
2023/01/15 15:09:03;;;;;;;5.43;3.30;;;;;;;;;;4993083;28;20026;-39
2023/01/15 15:14:29;;;;;;;2.13;1.92;;;;;;;;;;4992390;28;20441;-39
2023/01/15 15:16:58;;;;;;;3.10;2.20;;;;;;;;;;4992791;28;20046;-39
2023/01/15 15:19:32;;;;;;;3.95;2.58;;;;;;;;;;4992654;28;20058;-40
2023/01/15 15:22:01;;;;;;;5.88;3.17;;;;;;;;;;4992679;28;20026;-39
2023/01/15 15:24:27;;;;;;;4.93;3.15;;;;;;;;;;4992623;28;20205;-39
2023/01/15 15:26:53;;;;;;;3.67;2.35;;;;;;;;;;4992654;28;20548;-39
2023/01/15 15:29:20;;;;;;;2.65;2.38;;;;;;;;;;4992510;28;20497;-39
2023/01/15 15:31:48;;;;;;;4.60;2.58;;;;;;;;;;4992413;28;20034;-40
2023/01/15 15:34:23;;;;;;;3.67;2.42;;;;;;;;;;4992268;28;20019;-39
2023/01/15 15:36:49;;;;;;;4.07;2.58;;;;;;;;;;4992298;28;20022;-39
2023/01/15 15:39:20;;;;;;;3.38;1.90;;;;;;;;;;4992264;28;20381;-39
2023/01/15 15:50:30;;;;;;;8.68;4.15;;;;;;;;;;4992495;28;20046;-39
2023/01/15 15:52:57;;;;;;;6.70;3.53;;;;;;;;;;4992125;28;20065;-39
2023/01/15 15:55:25;;;;;;;4.60;2.63;;;;;;;;;;4992204;28;20030;-39
2023/01/15 15:58:03;;;;;;;5.32;3.38;;;;;;;;;;4992089;28;20038;-40
2023/01/15 16:00:32;;;;;;;4.18;2.83;;;;;;;;;;4992017;28;20031;-39